createdAt,value
2019-03-04T00:01:45.686Z,11.70
2019-03-04T00:04:14.547Z,11.70
2019-03-04T00:06:43.570Z,11.70
2019-03-04T00:09:12.463Z,11.70
2019-03-04T00:11:41.139Z,11.70
2019-03-04T00:14:10.103Z,11.70
2019-03-04T00:16:38.926Z,11.70
2019-03-04T00:19:07.870Z,11.80
2019-03-04T00:21:36.743Z,11.80
2019-03-04T00:24:05.650Z,11.90
2019-03-04T00:26:34.340Z,11.90
2019-03-04T00:29:03.259Z,11.80
2019-03-04T00:31:32.060Z,11.80
2019-03-04T00:34:00.910Z,11.80
2019-03-04T00:36:29.673Z,11.80
2019-03-04T00:38:58.484Z,11.80
2019-03-04T00:41:27.089Z,11.80
2019-03-04T00:43:55.947Z,11.80
2019-03-04T00:46:24.719Z,11.80
2019-03-04T00:48:53.508Z,11.90
2019-03-04T00:51:22.353Z,11.90
2019-03-04T00:53:51.093Z,11.90
2019-03-04T00:56:39.134Z,11.90
2019-03-04T00:59:08.023Z,11.90
2019-03-04T01:01:56.060Z,11.80
2019-03-04T01:04:24.751Z,11.80
2019-03-04T01:06:53.476Z,11.70
2019-03-04T01:09:22.236Z,11.70
2019-03-04T01:11:51.108Z,11.70
2019-03-04T01:14:19.891Z,11.70
2019-03-04T01:16:48.768Z,11.60
2019-03-04T01:19:17.410Z,11.70
2019-03-04T01:21:46.512Z,11.70
2019-03-04T01:24:15.231Z,11.60
2019-03-04T01:26:43.995Z,11.60
2019-03-04T01:29:12.693Z,11.70
2019-03-04T01:31:43.575Z,11.70
2019-03-04T01:34:12.022Z,11.80
2019-03-04T01:36:40.804Z,11.80
2019-03-04T01:39:09.411Z,11.80
2019-03-04T01:41:38.323Z,11.80
2019-03-04T01:44:07.080Z,11.80
2019-03-04T01:46:35.885Z,11.90
2019-03-04T01:49:04.702Z,11.90
2019-03-04T01:51:39.228Z,11.90
2019-03-04T01:54:08.056Z,12.00
2019-03-04T01:56:37.115Z,12.00
2019-03-04T01:59:05.827Z,12.10
2019-03-04T02:01:34.706Z,12.10
2019-03-04T02:04:04.206Z,12.10
2019-03-04T02:06:33.112Z,12.10
2019-03-04T02:09:02.593Z,12.10
2019-03-04T02:11:31.629Z,12.00
2019-03-04T02:14:00.295Z,12.00
2019-03-04T02:16:29.513Z,12.00
2019-03-04T02:18:58.307Z,12.10
2019-03-04T02:21:46.357Z,12.10
2019-03-04T02:24:16.594Z,12.10
2019-03-04T02:26:45.338Z,12.10
2019-03-04T02:29:14.159Z,12.10
2019-03-04T02:31:43.069Z,12.20
2019-03-04T02:34:11.875Z,12.20
2019-03-04T02:36:40.791Z,12.20
2019-03-04T02:39:09.601Z,12.10
2019-03-04T02:41:38.408Z,12.10
2019-03-04T02:44:07.108Z,12.00
2019-03-04T02:46:35.997Z,11.90
2019-03-04T02:49:05.334Z,11.90
2019-03-04T02:51:34.137Z,11.90
2019-03-04T02:54:03.128Z,11.90
2019-03-04T02:56:32.966Z,12.00
2019-03-04T02:59:01.846Z,12.00
2019-03-04T03:01:30.671Z,12.00
2019-03-04T03:03:59.540Z,12.00
2019-03-04T03:06:28.247Z,12.00
2019-03-04T03:08:57.584Z,12.00
2019-03-04T03:11:26.363Z,12.00
2019-03-04T03:13:55.015Z,12.00
2019-03-04T03:16:24.024Z,12.00
2019-03-04T03:18:53.005Z,12.00
2019-03-04T03:21:21.975Z,12.00
2019-03-04T03:23:50.727Z,12.00
2019-03-04T03:26:19.623Z,12.00
2019-03-04T03:28:48.460Z,12.00
2019-03-04T03:31:17.256Z,12.00
2019-03-04T03:33:45.997Z,12.10
2019-03-04T03:36:14.823Z,12.10
2019-03-04T03:38:43.613Z,12.00
2019-03-04T03:41:12.554Z,12.10
2019-03-04T03:43:41.415Z,12.10
2019-03-04T03:46:10.502Z,12.10
2019-03-04T03:48:39.352Z,12.10
2019-03-04T03:51:08.301Z,12.00
2019-03-04T03:53:37.169Z,12.00
2019-03-04T03:56:06.072Z,12.10
2019-03-04T03:58:35.066Z,12.10
2019-03-04T04:01:03.952Z,12.20
2019-03-04T04:03:33.227Z,12.20
2019-03-04T04:06:02.495Z,12.30
2019-03-04T04:08:34.028Z,12.30
2019-03-04T04:11:02.832Z,12.40
2019-03-04T04:13:31.721Z,12.50
2019-03-04T04:16:00.638Z,12.50
2019-03-04T04:18:29.275Z,12.50
2019-03-04T04:20:58.216Z,12.50
2019-03-04T04:23:26.932Z,12.50
2019-03-04T04:25:55.689Z,12.50
2019-03-04T04:28:24.498Z,12.50
2019-03-04T04:30:53.451Z,12.50
2019-03-04T04:33:22.289Z,12.50
2019-03-04T04:35:50.963Z,12.60
2019-03-04T04:38:19.848Z,12.50
2019-03-04T04:40:48.547Z,12.50
2019-03-04T04:43:17.271Z,12.50
2019-03-04T04:45:46.195Z,12.50
2019-03-04T04:48:15.065Z,12.60
2019-03-04T04:50:43.769Z,12.60
2019-03-04T04:53:12.750Z,12.60
2019-03-04T04:55:41.872Z,12.60
2019-03-04T04:58:11.256Z,12.60
2019-03-04T05:00:39.976Z,12.60
2019-03-04T05:03:08.779Z,12.60
2019-03-04T05:05:37.753Z,12.50
2019-03-04T05:08:06.436Z,12.50
2019-03-04T05:10:35.451Z,12.40
2019-03-04T05:13:04.302Z,12.40
2019-03-04T05:15:33.159Z,12.50
2019-03-04T05:18:01.974Z,12.40
2019-03-04T05:20:30.835Z,12.30
2019-03-04T05:22:59.725Z,12.30
2019-03-04T05:25:28.563Z,12.20
2019-03-04T05:27:57.302Z,12.20
2019-03-04T05:30:26.178Z,12.10
2019-03-04T05:32:54.882Z,12.10
2019-03-04T05:35:23.865Z,12.10
2019-03-04T05:37:52.606Z,12.10
2019-03-04T05:40:21.480Z,12.20
2019-03-04T05:42:50.513Z,12.20
2019-03-04T05:45:19.553Z,12.30
2019-03-04T05:47:48.403Z,12.30
2019-03-04T05:50:18.735Z,12.20
2019-03-04T05:52:47.663Z,12.30
2019-03-04T05:55:16.593Z,12.30
2019-03-04T05:57:45.390Z,12.30
2019-03-04T06:00:15.926Z,12.30
2019-03-04T06:02:44.783Z,12.30
2019-03-04T06:05:14.736Z,12.30
2019-03-04T06:07:45.267Z,12.30
2019-03-04T06:10:14.150Z,12.30
2019-03-04T06:12:43.334Z,12.30
2019-03-04T06:15:15.882Z,12.30
2019-03-04T06:17:44.887Z,12.30
2019-03-04T06:20:33.003Z,12.20
2019-03-04T06:23:01.810Z,12.20
2019-03-04T06:25:30.552Z,12.20
2019-03-04T06:27:59.372Z,12.20
2019-03-04T06:30:31.075Z,12.20
2019-03-04T06:33:00.000Z,12.10
2019-03-04T06:35:28.919Z,12.10
2019-03-04T06:37:57.590Z,12.00
2019-03-04T06:40:26.286Z,12.00
2019-03-04T06:42:55.277Z,11.80
2019-03-04T06:45:24.028Z,10.00
2019-03-04T06:47:52.881Z,8.40
2019-03-04T06:50:41.252Z,7.90
2019-03-04T06:53:09.968Z,7.60
2019-03-04T06:55:40.153Z,7.40
2019-03-04T06:58:12.537Z,7.20
2019-03-04T07:00:45.762Z,7.20
2019-03-04T07:03:16.055Z,7.10
2019-03-04T07:05:50.739Z,7.00
2019-03-04T07:08:35.263Z,6.90
2019-03-04T07:11:05.338Z,6.80
2019-03-04T07:13:35.046Z,6.80
2019-03-04T07:16:04.692Z,6.80
2019-03-04T07:18:34.397Z,6.80
2019-03-04T07:21:04.203Z,6.70
2019-03-04T07:23:34.079Z,6.80
2019-03-04T07:26:03.912Z,6.90
2019-03-04T07:28:33.585Z,7.10
2019-03-04T07:31:03.294Z,7.10
2019-03-04T07:33:32.918Z,7.20
2019-03-04T07:36:21.811Z,7.30
2019-03-04T07:38:56.008Z,7.40
2019-03-04T07:41:26.308Z,7.60
2019-03-04T07:43:56.127Z,7.80
2019-03-04T07:46:25.743Z,7.90
2019-03-04T07:48:55.437Z,8.00
2019-03-04T07:51:25.155Z,8.10
2019-03-04T07:53:57.130Z,8.20
2019-03-04T07:56:26.994Z,8.30
2019-03-04T07:58:56.638Z,8.40
2019-03-04T08:01:26.246Z,8.60
2019-03-04T08:04:15.435Z,8.70
2019-03-04T08:06:45.007Z,8.70
2019-03-04T08:09:36.985Z,8.80
2019-03-04T08:12:12.561Z,9.00
2019-03-04T08:14:41.349Z,9.30
2019-03-04T08:17:10.057Z,9.50
2019-03-04T08:19:38.807Z,9.70
2019-03-04T08:22:07.543Z,9.80
2019-03-04T08:24:37.167Z,10.20
2019-03-04T08:27:07.686Z,10.40
2019-03-04T08:29:37.309Z,10.30
2019-03-04T08:32:06.891Z,10.10
2019-03-04T08:34:36.451Z,10.00
2019-03-04T08:37:06.133Z,10.00
2019-03-04T08:39:35.732Z,9.90
2019-03-04T08:42:05.454Z,9.90
2019-03-04T08:44:35.127Z,9.90
2019-03-04T08:47:04.873Z,9.90
2019-03-04T08:49:34.664Z,9.90
2019-03-04T08:52:04.503Z,10.00
2019-03-04T08:54:34.123Z,10.00
2019-03-04T08:57:04.366Z,10.10
2019-03-04T08:59:34.213Z,10.20
2019-03-04T09:02:04.427Z,10.40
2019-03-04T09:04:33.989Z,10.40
2019-03-04T09:07:04.204Z,10.40
2019-03-04T09:09:34.130Z,10.60
2019-03-04T09:12:04.001Z,11.10
2019-03-04T09:14:33.603Z,11.30
2019-03-04T09:17:03.555Z,11.20
2019-03-04T09:19:33.316Z,11.70
2019-03-04T09:22:03.180Z,11.90
2019-03-04T09:24:32.785Z,12.20
2019-03-04T09:27:02.580Z,12.00
2019-03-04T09:29:31.511Z,12.20
2019-03-04T09:32:00.419Z,12.60
2019-03-04T09:34:29.221Z,12.60
2019-03-04T09:36:58.033Z,12.20
2019-03-04T09:39:26.847Z,11.50
2019-03-04T09:41:57.175Z,11.20
2019-03-04T09:44:26.061Z,10.90
2019-03-04T09:46:54.924Z,11.00
2019-03-04T09:49:23.723Z,10.90
2019-03-04T09:51:52.594Z,10.80
2019-03-04T09:54:22.186Z,10.80
2019-03-04T09:56:51.883Z,10.70
2019-03-04T09:59:21.678Z,10.70
2019-03-04T10:01:52.414Z,10.70
2019-03-04T10:04:25.215Z,10.70
2019-03-04T10:07:00.480Z,10.50
2019-03-04T10:09:45.269Z,10.20
2019-03-04T10:12:20.760Z,10.00
2019-03-04T10:15:09.117Z,9.80
2019-03-04T10:17:56.852Z,9.60
2019-03-04T10:20:38.280Z,9.20
2019-03-04T10:23:35.067Z,9.00
2019-03-04T10:26:26.168Z,9.00
2019-03-04T10:29:04.764Z,8.90
2019-03-04T10:31:52.684Z,8.90
2019-03-04T10:34:44.773Z,9.00
2019-03-04T10:37:29.093Z,9.00
2019-03-04T10:40:33.408Z,9.00
2019-03-04T10:43:25.647Z,9.00
2019-03-04T10:46:04.411Z,8.90
2019-03-04T10:48:33.987Z,8.90
2019-03-04T10:51:23.056Z,8.90
2019-03-04T10:53:52.785Z,8.90
2019-03-04T10:56:22.534Z,8.70
2019-03-04T10:58:52.220Z,8.60
2019-03-04T11:01:30.197Z,8.50
2019-03-04T11:03:53.473Z,8.50
2019-03-04T11:06:23.298Z,8.50
2019-03-04T11:08:53.205Z,8.50
2019-03-04T11:11:29.859Z,8.60
2019-03-04T11:13:54.597Z,8.60
2019-03-04T11:16:24.290Z,8.70
2019-03-04T11:18:54.824Z,8.80
2019-03-04T11:21:24.695Z,8.80
2019-03-04T11:23:54.515Z,8.90
2019-03-04T11:26:24.546Z,9.00
2019-03-04T11:28:54.558Z,9.00
2019-03-04T11:31:24.547Z,9.10
2019-03-04T11:33:54.358Z,9.30
2019-03-04T11:36:24.359Z,9.40
2019-03-04T11:38:57.030Z,9.40
2019-03-04T11:41:26.924Z,9.40
2019-03-04T11:43:57.417Z,9.50
2019-03-04T11:46:27.367Z,9.30
2019-03-04T11:48:57.180Z,8.80
2019-03-04T11:51:26.917Z,8.40
2019-03-04T11:53:56.468Z,7.60
2019-03-04T11:56:25.344Z,7.10
2019-03-04T11:58:54.556Z,7.00
2019-03-04T12:01:25.132Z,6.80
2019-03-04T12:03:54.867Z,6.70
2019-03-04T12:06:25.033Z,6.70
2019-03-04T12:08:54.745Z,6.60
2019-03-04T12:11:24.506Z,6.50
2019-03-04T12:13:54.574Z,6.50
2019-03-04T12:16:24.493Z,6.50
2019-03-04T12:18:54.363Z,6.50
2019-03-04T12:21:24.301Z,6.50
2019-03-04T12:23:54.239Z,6.50
2019-03-04T12:26:24.053Z,6.60
2019-03-04T12:28:53.879Z,6.60
2019-03-04T12:31:25.537Z,6.90
2019-03-04T12:33:55.434Z,7.30
2019-03-04T12:36:25.479Z,7.70
2019-03-04T12:38:55.479Z,8.00
2019-03-04T12:41:25.306Z,8.10
2019-03-04T12:43:55.214Z,8.10
2019-03-04T12:46:25.230Z,7.90
2019-03-04T12:48:55.153Z,7.90
2019-03-04T12:51:25.218Z,8.00
2019-03-04T12:53:54.970Z,8.10
2019-03-04T12:56:24.868Z,8.00
2019-03-04T12:58:54.624Z,7.80
2019-03-04T13:01:24.765Z,8.00
2019-03-04T13:03:54.717Z,8.00
2019-03-04T13:06:24.687Z,8.00
2019-03-04T13:08:54.911Z,7.80
2019-03-04T13:11:24.995Z,7.70
2019-03-04T13:13:54.900Z,7.60
2019-03-04T13:16:27.992Z,7.50
2019-03-04T13:18:58.060Z,7.60
2019-03-04T13:21:27.998Z,7.70
2019-03-04T13:23:58.605Z,7.70
2019-03-04T13:26:28.570Z,7.70
2019-03-04T13:28:58.384Z,7.80
2019-03-04T13:31:28.308Z,7.80
2019-03-04T13:33:58.160Z,7.80
2019-03-04T13:36:27.824Z,7.80
2019-03-04T13:38:57.750Z,7.80
2019-03-04T13:41:27.851Z,7.80
2019-03-04T13:43:57.623Z,7.80
2019-03-04T13:46:27.318Z,7.70
2019-03-04T13:48:57.328Z,7.50
2019-03-04T13:51:27.105Z,7.50
2019-03-04T13:53:57.021Z,7.40
2019-03-04T13:56:26.931Z,7.20
2019-03-04T13:58:56.871Z,7.20
2019-03-04T14:01:26.625Z,7.10
2019-03-04T14:03:56.992Z,7.00
2019-03-04T14:06:26.718Z,6.90
2019-03-04T14:08:56.544Z,6.90
2019-03-04T14:11:26.321Z,6.90
2019-03-04T14:13:56.551Z,7.10
2019-03-04T14:16:26.135Z,7.20
2019-03-04T14:18:55.767Z,7.20
2019-03-04T14:21:25.359Z,7.30
2019-03-04T14:23:55.056Z,7.40
2019-03-04T14:26:25.052Z,7.40
2019-03-04T14:28:54.765Z,7.40
2019-03-04T14:31:24.423Z,7.40
2019-03-04T14:33:54.191Z,7.50
2019-03-04T14:36:23.867Z,7.60
2019-03-04T14:38:53.649Z,7.60
2019-03-04T14:41:23.516Z,7.70
2019-03-04T14:43:53.382Z,7.60
2019-03-04T14:46:24.129Z,7.60
2019-03-04T14:48:53.884Z,7.70
2019-03-04T14:51:24.539Z,7.80
2019-03-04T14:53:54.411Z,7.90
2019-03-04T14:56:24.185Z,8.00
2019-03-04T14:59:09.531Z,8.30
2019-03-04T15:01:25.285Z,8.30
2019-03-04T15:03:55.288Z,8.40
2019-03-04T15:06:25.330Z,8.40
2019-03-04T15:08:55.192Z,8.40
2019-03-04T15:11:25.110Z,8.40
2019-03-04T15:13:54.873Z,8.30
2019-03-04T15:16:24.546Z,8.20
2019-03-04T15:18:54.791Z,8.20
2019-03-04T15:21:24.484Z,8.10
2019-03-04T15:23:54.489Z,8.10
2019-03-04T15:26:24.384Z,8.10
2019-03-04T15:28:54.099Z,8.10
2019-03-04T15:31:24.131Z,8.30
2019-03-04T15:33:55.359Z,8.20
2019-03-04T15:36:25.526Z,8.10
2019-03-04T15:38:55.486Z,8.10
2019-03-04T15:41:25.550Z,8.20
2019-03-04T15:43:55.342Z,8.20
2019-03-04T15:46:25.143Z,8.20
2019-03-04T15:48:55.198Z,8.20
2019-03-04T15:51:25.094Z,8.20
2019-03-04T15:53:54.888Z,8.20
2019-03-04T15:56:24.772Z,8.20
2019-03-04T15:58:54.715Z,8.20
2019-03-04T16:01:24.357Z,8.20
2019-03-04T16:03:54.082Z,8.10
2019-03-04T16:06:23.818Z,8.10
2019-03-04T16:08:53.737Z,8.10
2019-03-04T16:11:23.676Z,8.00
2019-03-04T16:13:56.140Z,8.00
2019-03-04T16:16:25.465Z,8.00
2019-03-04T16:18:55.941Z,8.00
2019-03-04T16:21:26.296Z,7.90
2019-03-04T16:23:56.152Z,7.90
2019-03-04T16:26:46.446Z,7.90
2019-03-04T16:29:16.702Z,7.90
2019-03-04T16:32:05.676Z,7.80
2019-03-04T16:34:35.772Z,7.80
2019-03-04T16:37:06.392Z,7.70
2019-03-04T16:39:36.555Z,7.70
2019-03-04T16:42:07.086Z,7.70
2019-03-04T16:44:36.949Z,7.70
2019-03-04T16:47:06.816Z,7.70
2019-03-04T16:49:37.146Z,7.60
2019-03-04T16:52:06.860Z,7.60
2019-03-04T16:54:36.855Z,7.60
2019-03-04T16:57:09.873Z,7.60
2019-03-04T16:59:39.857Z,7.60
2019-03-04T17:02:09.604Z,7.60
2019-03-04T17:04:39.469Z,7.60
2019-03-04T17:07:09.113Z,7.60
2019-03-04T17:09:38.920Z,7.60
2019-03-04T17:12:09.050Z,7.60
2019-03-04T17:14:39.379Z,7.50
2019-03-04T17:17:12.667Z,7.50
2019-03-04T17:19:42.650Z,7.50
2019-03-04T17:22:13.990Z,7.40
2019-03-04T17:24:45.660Z,7.40
2019-03-04T17:27:15.603Z,7.30
2019-03-04T17:29:45.721Z,7.30
2019-03-04T17:32:16.082Z,7.20
2019-03-04T17:34:45.780Z,7.10
2019-03-04T17:37:15.680Z,7.00
2019-03-04T17:39:45.945Z,7.00
2019-03-04T17:42:15.834Z,6.90
2019-03-04T17:44:45.661Z,6.90
2019-03-04T17:47:15.632Z,6.90
2019-03-04T17:49:45.473Z,7.00
2019-03-04T17:52:15.434Z,7.10
2019-03-04T17:54:45.566Z,7.10
2019-03-04T17:57:16.861Z,7.00
2019-03-04T17:59:49.732Z,7.00
2019-03-04T18:02:20.124Z,7.10
2019-03-04T18:04:49.963Z,7.10
2019-03-04T18:07:20.383Z,7.00
2019-03-04T18:09:51.421Z,7.00
2019-03-04T18:12:21.391Z,7.00
2019-03-04T18:14:51.488Z,7.00
2019-03-04T18:17:40.680Z,6.90
2019-03-04T18:20:12.346Z,6.90
2019-03-04T18:22:42.362Z,6.80
2019-03-04T18:25:36.453Z,6.80
2019-03-04T18:28:24.620Z,6.80
2019-03-04T18:31:09.527Z,6.70
2019-03-04T18:34:12.490Z,6.60
2019-03-04T18:36:48.194Z,6.50
2019-03-04T18:39:20.998Z,6.50
2019-03-04T18:42:03.219Z,6.40
2019-03-04T18:44:56.740Z,6.40
2019-03-04T18:47:37.989Z,6.30
2019-03-04T18:50:08.138Z,6.30
2019-03-04T18:52:38.688Z,6.20
2019-03-04T18:55:12.401Z,6.20
2019-03-04T18:57:42.480Z,6.10
2019-03-04T19:00:18.068Z,6.10
2019-03-04T19:02:48.505Z,6.10
2019-03-04T19:05:19.079Z,6.10
2019-03-04T19:07:49.290Z,6.10
2019-03-04T19:10:19.757Z,6.10
2019-03-04T19:12:49.811Z,6.10
2019-03-04T19:15:19.952Z,6.00
2019-03-04T19:17:49.729Z,6.00
2019-03-04T19:20:22.492Z,5.90
2019-03-04T19:22:53.136Z,5.90
2019-03-04T19:25:23.190Z,5.80
2019-03-04T19:27:52.880Z,5.90
2019-03-04T19:30:22.664Z,5.90
2019-03-04T19:32:52.423Z,5.90
2019-03-04T19:35:22.818Z,5.90
2019-03-04T19:37:52.950Z,6.00
2019-03-04T19:40:23.115Z,6.00
2019-03-04T19:42:53.137Z,6.00
2019-03-04T19:45:23.577Z,6.10
2019-03-04T19:47:53.502Z,6.10
2019-03-04T19:50:23.300Z,6.20
2019-03-04T19:52:53.507Z,6.20
2019-03-04T19:55:23.338Z,6.20
2019-03-04T19:57:53.274Z,6.20
2019-03-04T20:00:26.556Z,6.20
2019-03-04T20:02:56.332Z,6.20
2019-03-04T20:05:26.393Z,6.20
2019-03-04T20:07:57.884Z,6.20
2019-03-04T20:10:28.696Z,6.20
2019-03-04T20:12:59.396Z,6.20
2019-03-04T20:15:32.292Z,6.20
2019-03-04T20:18:02.605Z,6.20
2019-03-04T20:20:33.259Z,6.30
2019-03-04T20:23:03.285Z,6.40
2019-03-04T20:25:33.235Z,6.40
2019-03-04T20:28:03.233Z,6.40
2019-03-04T20:30:33.076Z,6.30
2019-03-04T20:33:03.110Z,6.40
2019-03-04T20:35:32.883Z,6.40
2019-03-04T20:38:05.543Z,6.50
2019-03-04T20:40:35.523Z,6.40
2019-03-04T20:43:05.468Z,6.40
2019-03-04T20:45:35.585Z,6.40
2019-03-04T20:48:05.475Z,6.40
2019-03-04T20:50:35.399Z,6.40
2019-03-04T20:53:05.254Z,6.50
2019-03-04T20:55:35.341Z,6.50
2019-03-04T20:58:06.071Z,6.60
2019-03-04T21:00:37.272Z,6.60
2019-03-04T21:03:08.147Z,6.70
2019-03-04T21:05:38.713Z,6.80
2019-03-04T21:08:08.830Z,6.80
2019-03-04T21:10:38.737Z,6.90
2019-03-04T21:13:10.738Z,6.90
2019-03-04T21:15:40.665Z,6.90
2019-03-04T21:18:10.623Z,7.00
2019-03-04T21:20:40.668Z,7.00
2019-03-04T21:23:10.461Z,7.10
2019-03-04T21:25:46.261Z,7.10
2019-03-04T21:28:19.398Z,7.10
2019-03-04T21:30:58.304Z,7.00
2019-03-04T21:33:31.260Z,6.70
2019-03-04T21:36:10.037Z,6.50
2019-03-04T21:38:41.523Z,6.30
2019-03-04T21:41:17.133Z,6.20
2019-03-04T21:43:50.087Z,6.10
2019-03-04T21:46:41.099Z,6.10
2019-03-04T21:49:11.797Z,6.10
2019-03-04T21:51:44.787Z,6.20
2019-03-04T21:54:15.198Z,6.20
2019-03-04T21:56:53.908Z,6.30
2019-03-04T21:59:23.802Z,6.30
2019-03-04T22:01:59.861Z,6.00
2019-03-04T22:04:30.099Z,5.60
2019-03-04T22:07:00.037Z,5.40
2019-03-04T22:09:30.073Z,5.30
2019-03-04T22:12:00.007Z,5.30
2019-03-04T22:14:30.099Z,5.30
2019-03-04T22:17:00.054Z,5.20
2019-03-04T22:19:30.184Z,5.20
2019-03-04T22:22:00.129Z,5.20
2019-03-04T22:24:30.128Z,5.20
2019-03-04T22:26:59.935Z,5.20
2019-03-04T22:29:29.699Z,5.20
2019-03-04T22:31:59.538Z,5.20
2019-03-04T22:34:29.256Z,5.10
2019-03-04T22:36:58.970Z,5.10
2019-03-04T22:39:28.814Z,5.10
2019-03-04T22:41:58.793Z,5.10
2019-03-04T22:44:28.556Z,5.10
2019-03-04T22:46:58.459Z,5.20
2019-03-04T22:49:28.370Z,5.20
2019-03-04T22:51:58.072Z,5.20
2019-03-04T22:54:27.938Z,5.30
2019-03-04T22:56:57.703Z,5.40
2019-03-04T22:59:27.606Z,5.40
2019-03-04T23:01:58.322Z,5.50
2019-03-04T23:04:28.252Z,5.50
2019-03-04T23:07:01.055Z,5.50
2019-03-04T23:09:42.742Z,5.60
2019-03-04T23:12:15.420Z,5.70
2019-03-04T23:14:45.744Z,5.70
2019-03-04T23:17:16.069Z,5.80
2019-03-04T23:19:45.676Z,5.90
2019-03-04T23:22:15.330Z,5.90
2019-03-04T23:24:45.077Z,5.90
2019-03-04T23:27:14.720Z,6.00
2019-03-04T23:29:44.384Z,6.00
2019-03-04T23:32:13.986Z,6.10
2019-03-04T23:34:44.028Z,6.10
2019-03-04T23:37:13.814Z,6.20
2019-03-04T23:39:43.970Z,6.20
2019-03-04T23:42:13.644Z,6.20
2019-03-04T23:44:43.516Z,6.20
2019-03-04T23:47:13.292Z,6.20
2019-03-04T23:49:43.703Z,6.30
2019-03-04T23:52:13.707Z,6.20
2019-03-04T23:54:43.579Z,6.30
2019-03-04T23:57:13.274Z,6.30
2019-03-04T23:59:42.883Z,6.30
